Time;durP1;ratioP1;P1;durP2;ratioP2;P2;SDS_P1;SDS_P2;PMS_P1;PMS_P2;Temp;Humidity;BMP_temperature;BMP_pressure;BME280_temperature;BME280_humidity;BME280_pressure;Samples;Min_cycle;Max_cycle;Signal;HPM_P1;HPM_P2
2023/04/22 00:01:00;;;;;;;4.50;3.10;;;;;;;12.20;79.91;98498.81;7375835;39;20265;31
2023/04/22 00:06:31;;;;;;;4.50;3.50;;;;;;;12.13;80.33;98479.88;7378996;39;20247;31
2023/04/22 00:12:01;;;;;;;5.40;4.13;;;;;;;12.00;80.65;98482.44;7423733;39;20337;31
2023/04/22 00:17:31;;;;;;;4.90;3.63;;;;;;;12.04;80.41;98480.19;7439189;39;20336;31
2023/04/22 00:22:48;;;;;;;6.40;3.80;;;;;;;12.01;80.81;98480.59;7391268;39;20244;31
2023/04/22 00:28:22;;;;;;;5.57;3.50;;;;;;;11.83;81.66;98478.34;7380227;39;20331;31
2023/04/22 00:33:54;;;;;;;4.40;3.63;;;;;;;11.76;81.81;98465.81;7405929;39;20247;31
2023/04/22 00:39:29;;;;;;;3.77;3.40;;;;;;;11.72;82.09;98473.44;7462320;39;20255;31
2023/04/22 00:45:02;;;;;;;4.30;3.57;;;;;;;11.63;82.58;98475.38;7274732;39;20244;31
2023/04/22 00:50:34;;;;;;;3.83;3.30;;;;;;;11.71;81.39;98472.59;7419987;39;20348;31
2023/04/22 00:56:09;;;;;;;4.73;3.90;;;;;;;11.61;81.71;98474.75;7398576;39;20261;31
2023/04/22 01:01:46;;;;;;;3.90;3.50;;;;;;;11.60;82.59;98473.06;7443648;39;20311;31
2023/04/22 01:07:21;;;;;;;3.60;3.30;;;;;;;11.60;82.36;98475.78;7377332;39;20421;31
2023/04/22 01:12:38;;;;;;;4.35;3.80;;;;;;;11.63;81.67;98467.28;7329194;39;20411;31
2023/04/22 01:23:17;;;;;;;4.60;3.67;;;;;;;11.68;81.34;98464.84;7393222;39;20270;31
2023/04/22 01:33:54;;;;;;;4.50;3.60;;;;;;;11.58;81.89;98477.81;7485145;39;20288;31
2023/04/22 01:44:33;;;;;;;3.80;3.40;;;;;;;11.50;81.78;98471.69;7447767;39;20267;31
2023/04/22 01:50:06;;;;;;;3.55;3.20;;;;;;;11.53;81.25;98480.28;7379443;39;20270;31
2023/04/22 01:55:38;;;;;;;5.05;2.70;;;;;;;11.51;81.20;98487.72;7420596;39;20232;31
2023/04/22 02:07:14;;;;;;;3.80;2.90;;;;;;;11.35;81.20;98487.94;7392216;39;20267;31
2023/04/22 02:17:53;;;;;;;3.47;3.07;;;;;;;11.39;80.95;98496.47;7439687;39;21332;31
2023/04/22 02:23:24;;;;;;;3.87;2.70;;;;;;;11.40;80.78;98495.47;7437166;39;20247;31
2023/04/22 02:28:45;;;;;;;3.10;2.80;;;;;;;11.34;80.85;98496.22;7439440;39;20341;31
2023/04/22 02:34:19;;;;;;;5.87;2.80;;;;;;;11.17;80.76;98493.72;7375643;39;20258;31
2023/04/22 02:39:52;;;;;;;4.37;2.60;;;;;;;11.14;80.68;98504.06;7356354;39;20329;31
2023/04/22 02:45:12;;;;;;;3.06;2.76;;;;;;;11.19;80.51;98501.63;7396846;39;20285;31
2023/04/22 02:50:43;;;;;;;6.75;3.20;;;;;;;11.13;80.48;98497.81;7431711;39;20242;31
2023/04/22 02:56:17;;;;;;;2.60;2.40;;;;;;;11.05;80.04;98507.87;7462327;39;21095;31
2023/04/22 03:01:49;;;;;;;2.90;2.60;;;;;;;11.05;79.76;98515.97;7419501;39;20254;31
2023/04/22 03:07:07;;;;;;;4.03;2.70;;;;;;;11.00;80.11;98513.00;7420474;39;20235;31
2023/04/22 03:12:40;;;;;;;2.80;2.30;;;;;;;10.88;79.35;98498.31;7377877;39;20684;31
2023/04/22 03:18:01;;;;;;;2.67;2.43;;;;;;;10.79;79.55;98502.94;7364792;39;20255;31
2023/04/22 03:23:18;;;;;;;3.03;2.33;;;;;;;10.78;80.06;98504.81;7397819;39;20253;31
2023/04/22 03:28:49;;;;;;;2.17;2.00;;;;;;;10.75;79.50;98496.25;7351109;39;20265;31
2023/04/22 03:34:18;;;;;;;3.77;2.40;;;;;;;10.68;79.45;98500.69;7351162;39;20286;31
2023/04/22 03:39:36;;;;;;;3.10;2.10;;;;;;;10.58;79.21;98497.41;7377141;39;20262;31
2023/04/22 03:45:08;;;;;;;3.07;2.77;;;;;;;10.46;79.08;98488.97;7379095;39;20363;31
2023/04/22 03:50:26;;;;;;;2.40;2.20;;;;;;;10.51;79.14;98497.34;7380355;39;20336;31
2023/04/22 03:56:00;;;;;;;2.33;2.13;;;;;;;10.42;78.48;98498.44;7399534;39;20238;31
2023/04/22 04:01:34;;;;;;;2.93;2.63;;;;;;;10.24;79.13;98481.75;7405610;39;20260;31
2023/04/22 04:07:05;;;;;;;2.50;2.30;;;;;;;10.29;79.61;98484.75;7370443;39;20247;31
2023/04/22 04:12:41;;;;;;;2.30;2.03;;;;;;;10.35;79.20;98481.34;7440778;39;20333;31
2023/04/22 04:18:13;;;;;;;3.40;2.40;;;;;;;10.32;78.56;98493.28;7424985;39;20284;31
2023/04/22 04:28:35;;;;;;;3.17;2.40;;;;;;;10.23;79.32;98483.59;7398375;39;21210;31
2023/04/22 04:39:18;;;;;;;3.17;2.40;;;;;;;10.13;79.52;98463.31;7391488;39;20266;31
2023/04/22 04:44:47;;;;;;;2.57;2.37;;;;;;;10.26;79.25;98466.28;7397624;39;20330;31
2023/04/22 04:50:07;;;;;;;3.73;2.40;;;;;;;10.23;79.22;98469.31;7399977;39;20244;31
2023/04/22 04:55:43;;;;;;;2.87;2.30;;;;;;;10.13;79.41;98474.94;7416625;39;20241;31
2023/04/22 05:01:15;;;;;;;2.40;2.20;;;;;;;9.96;79.48;98476.06;7413421;39;20318;31
2023/04/22 05:06:48;;;;;;;2.50;2.30;;;;;;;9.94;79.76;98486.19;7417471;39;20243;31
2023/04/22 05:12:19;;;;;;;3.45;2.30;;;;;;;9.94;80.08;98500.50;7428528;39;20298;31
2023/04/22 05:22:44;;;;;;;3.57;2.70;;;;;;;10.11;79.61;98511.12;7418063;39;20290;31
2023/04/22 05:33:20;;;;;;;2.67;2.43;;;;;;;10.06;80.12;98510.81;7444608;39;20277;31
2023/04/22 05:43:41;;;;;;;4.30;2.37;;;;;;;10.28;80.25;98518.09;7471472;39;20288;31
2023/04/22 05:49:15;;;;;;;2.73;2.43;;;;;;;10.45;79.50;98516.91;7505812;38;21328;31
2023/04/22 05:54:47;;;;;;;2.57;2.37;;;;;;;10.63;79.58;98524.66;7443996;39;20279;31
2023/04/22 06:00:20;;;;;;;3.93;2.97;;;;;;;10.71;80.08;98519.19;7378949;39;20251;31
2023/04/22 06:05:53;;;;;;;3.20;2.60;;;;;;;10.86;80.08;98506.56;7332898;39;20261;31
2023/04/22 06:11:13;;;;;;;3.33;2.73;;;;;;;11.05;79.68;98508.72;7342614;39;20472;31
2023/04/22 06:16:51;;;;;;;2.60;2.40;;;;;;;11.23;79.70;98514.53;7406949;39;20254;31
2023/04/22 06:22:21;;;;;;;6.10;3.20;;;;;;;11.40;79.33;98508.97;7417199;39;20235;31
2023/04/22 06:27:39;;;;;;;3.00;2.70;;;;;;;11.57;78.91;98515.81;7462584;39;20354;31
2023/04/22 06:32:56;;;;;;;5.27;4.37;;;;;;;11.73;79.33;98523.69;7462564;39;20332;31
2023/04/22 06:38:29;;;;;;;5.00;4.47;;;;;;;11.83;79.14;98507.19;7454753;39;21152;31
2023/04/22 06:43:48;;;;;;;4.93;4.37;;;;;;;12.00;80.68;98506.75;7434427;39;20250;31
2023/04/22 06:49:02;;;;;;;6.23;4.67;;;;;;;12.14;79.96;98511.25;7358416;39;21317;31
2023/04/22 06:54:34;;;;;;;7.07;5.70;;;;;;;12.17;81.90;98518.12;7364358;39;20252;31
2023/04/22 07:00:07;;;;;;;8.47;6.73;;;;;;;12.19;81.42;98516.09;7410153;39;20258;31
2023/04/22 07:05:36;;;;;;;7.80;6.55;;;;;;;12.34;81.20;98516.84;7389766;39;20358;31
2023/04/22 07:11:12;;;;;;;9.40;8.33;;;;;;;12.53;81.26;98513.47;7397725;39;20257;31
2023/04/22 07:16:44;;;;;;;6.80;5.90;;;;;;;12.77;80.79;98514.87;7413223;39;20276;31
2023/04/22 07:22:19;;;;;;;8.13;6.70;;;;;;;13.01;80.55;98517.13;7425228;39;20325;31
2023/04/22 07:27:55;;;;;;;7.07;6.37;;;;;;;13.15;80.07;98523.50;7400380;39;20255;31
2023/04/22 07:33:30;;;;;;;7.97;6.83;;;;;;;13.24;79.22;98516.91;7405967;39;20238;31
2023/04/22 07:39:02;;;;;;;7.33;6.20;;;;;;;13.37;79.53;98516.97;7217507;39;20231;31
2023/04/22 07:44:38;;;;;;;9.10;7.00;;;;;;;13.60;78.58;98508.53;7428709;39;20246;31
2023/04/22 07:50:13;;;;;;;6.73;6.03;;;;;;;13.87;78.58;98502.13;7374982;39;20258;31
2023/04/22 07:55:48;;;;;;;6.00;5.40;;;;;;;14.13;76.86;98497.81;7407438;39;20396;31
2023/04/22 08:01:21;;;;;;;7.10;5.25;;;;;;;14.36;76.43;98490.97;7424173;39;20325;31
2023/04/22 08:06:56;;;;;;;8.40;5.10;;;;;;;14.57;75.49;98489.12;7481186;39;20358;31
2023/04/22 08:12:10;;;;;;;11.93;8.93;;;;;;;14.81;75.54;98488.44;7464174;39;20400;31
2023/04/22 08:17:46;;;;;;;5.05;4.55;;;;;;;14.94;73.48;98477.56;7428835;39;21126;31
2023/04/22 08:23:18;;;;;;;5.25;4.75;;;;;;;15.12;73.17;98485.88;7460348;39;21354;31
2023/04/22 08:28:50;;;;;;;4.53;4.00;;;;;;;15.34;71.69;98473.69;7379849;39;20339;31
2023/04/22 08:34:21;;;;;;;5.50;3.67;;;;;;;15.72;70.60;98487.34;7336916;39;20248;31
2023/04/22 08:39:53;;;;;;;4.63;3.83;;;;;;;15.87;68.42;98489.78;7370384;39;20259;31
2023/04/22 08:45:28;;;;;;;4.63;4.00;;;;;;;16.15;67.80;98489.38;7361384;39;20375;31
2023/04/22 08:56:09;;;;;;;3.80;3.40;;;;;;;16.46;64.44;98472.19;7404052;39;20283;31
2023/04/22 09:01:41;;;;;;;3.93;3.27;;;;;;;16.72;64.27;98461.09;7471987;38;20431;31
2023/04/22 09:07:10;;;;;;;4.70;3.20;;;;;;;16.71;64.20;98458.62;7437655;39;21328;31
2023/04/22 09:17:50;;;;;;;3.57;3.27;;;;;;;17.07;62.03;98451.31;7443284;39;20278;31
2023/04/22 09:23:22;;;;;;;4.10;3.70;;;;;;;17.33;61.11;98446.66;7408303;39;20258;31
2023/04/22 09:29:01;;;;;;;6.83;4.13;;;;;;;17.57;60.12;98445.69;7441747;39;20290;31
2023/04/22 09:34:33;;;;;;;5.60;3.30;;;;;;;17.80;58.89;98434.09;7379835;39;20235;31
2023/04/22 09:40:06;;;;;;;4.20;3.30;;;;;;;17.59;60.55;98440.91;7336075;39;20348;31
2023/04/22 09:45:38;;;;;;;3.57;3.23;;;;;;;17.55;59.52;98447.84;7357435;39;20359;31
2023/04/22 09:51:11;;;;;;;5.77;3.93;;;;;;;17.69;60.27;98443.88;7399426;39;20262;31
2023/04/22 09:56:55;;;;;;;3.70;3.30;;;;;;;17.85;59.21;98439.69;7356122;39;20262;31
2023/04/22 10:02:13;;;;;;;4.35;3.55;;;;;;;18.23;58.04;98431.13;7377756;39;20441;31
2023/04/22 10:07:46;;;;;;;3.53;2.97;;;;;;;18.54;56.96;98430.84;7441006;39;20396;31
2023/04/22 10:13:18;;;;;;;3.00;2.70;;;;;;;18.63;55.21;98425.88;7439398;39;20327;31
2023/04/22 10:24:16;;;;;;;2.90;2.60;;;;;;;18.82;54.49;98424.69;7378555;39;20252;31
2023/04/22 10:29:51;;;;;;;4.00;3.10;;;;;;;18.81;54.75;98421.13;7335152;39;20340;31
2023/04/22 10:35:21;;;;;;;3.40;2.70;;;;;;;19.00;54.89;98421.00;7335128;39;20252;31
2023/04/22 10:41:15;;;;;;;2.70;2.33;;;;;;;19.10;52.35;98418.47;7292559;39;20270;31
2023/04/22 10:47:09;;;;;;;4.80;2.60;;;;;;;19.21;51.99;98417.63;7335771;39;20308;31
2023/04/22 10:52:39;;;;;;;2.50;2.30;;;;;;;19.29;52.47;98423.53;7377173;39;20235;31
2023/04/22 10:58:12;;;;;;;2.40;2.03;;;;;;;19.53;50.21;98410.66;7376845;39;20248;31
2023/04/22 11:03:44;;;;;;;2.70;2.20;;;;;;;19.73;51.00;98422.00;7357485;39;20319;31
2023/04/22 11:09:21;;;;;;;3.70;2.20;;;;;;;20.02;50.27;98432.91;7406180;39;20396;31
2023/04/22 11:14:55;;;;;;;2.63;2.30;;;;;;;20.17;49.25;98424.97;7378672;39;20281;31
2023/04/22 11:20:30;;;;;;;8.00;2.20;;;;;;;19.83;50.30;98426.00;7345535;39;20255;31
2023/04/22 11:26:03;;;;;;;2.43;2.03;;;;;;;19.70;49.01;98422.47;7412553;39;20267;31
2023/04/22 11:36:40;;;;;;;3.13;2.17;;;;;;;19.57;49.13;98416.50;7396349;39;20288;31
2023/04/22 11:47:05;;;;;;;5.48;2.02;;;;;;;19.52;47.78;98443.72;7345192;39;20274;31
2023/04/22 11:57:41;;;;;;;3.00;1.90;;;;;;;19.74;46.18;98437.34;7428993;39;21241;31
2023/04/22 12:03:13;;;;;;;2.63;2.10;;;;;;;19.54;47.99;98436.91;7395375;39;20262;31
2023/04/22 12:08:46;;;;;;;4.00;2.10;;;;;;;19.57;47.30;98430.97;7383871;39;20353;31
2023/04/22 12:14:21;;;;;;;3.47;2.20;;;;;;;19.39;48.66;98427.56;7379516;39;20238;31
2023/04/22 12:19:38;;;;;;;3.05;2.00;;;;;;;19.20;48.90;98441.38;7380699;39;20317;31
2023/04/22 12:25:12;;;;;;;2.44;2.12;;;;;;;19.05;48.93;98445.66;7416412;39;20410;31
2023/04/22 12:30:45;;;;;;;2.20;2.00;;;;;;;18.85;50.36;98448.78;7396399;39;20317;31
2023/04/22 12:36:17;;;;;;;3.37;1.93;;;;;;;18.82;49.78;98460.19;7419905;39;20296;31
2023/04/22 12:41:34;;;;;;;4.60;1.70;;;;;;;18.74;47.53;98453.16;7376583;39;20239;31
2023/04/22 12:47:08;;;;;;;2.50;1.60;;;;;;;18.71;46.65;98450.91;7342600;39;20262;31
2023/04/22 12:52:39;;;;;;;2.47;1.87;;;;;;;18.47;46.50;98454.69;7373514;39;20337;31
2023/04/22 12:58:14;;;;;;;3.30;1.60;;;;;;;18.20;44.84;98453.44;7362114;39;20251;31
2023/04/22 13:03:45;;;;;;;2.43;1.70;;;;;;;18.10;46.48;98454.00;7396256;39;20288;31
2023/04/22 13:14:06;;;;;;;4.20;2.00;;;;;;;18.01;48.12;98448.03;7363330;39;21207;31
2023/04/22 13:19:39;;;;;;;2.27;1.47;;;;;;;18.14;48.21;98443.44;7411574;39;21304;31
2023/04/22 13:24:59;;;;;;;3.07;1.60;;;;;;;18.11;48.13;98447.47;7406144;39;20255;31
2023/04/22 13:30:34;;;;;;;2.95;1.65;;;;;;;18.03;47.12;98437.72;7425639;39;20254;31
2023/04/22 13:36:07;;;;;;;3.25;1.90;;;;;;;18.02;47.44;98436.06;7466293;39;21970;31
2023/04/22 13:41:42;;;;;;;3.00;1.60;;;;;;;17.99;48.31;98433.78;7437758;39;20378;31
2023/04/22 13:47:14;;;;;;;2.60;1.63;;;;;;;18.00;47.69;98424.56;7373636;39;20351;31
2023/04/22 13:52:47;;;;;;;3.07;1.60;;;;;;;18.11;47.76;98420.22;7374429;39;20246;31
2023/04/22 13:58:08;;;;;;;2.87;1.77;;;;;;;18.24;47.85;98402.78;7364517;39;20258;31
2023/04/22 14:08:45;;;;;;;4.00;2.00;;;;;;;18.66;46.68;98403.53;7149463;39;21287;31
2023/04/22 14:14:17;;;;;;;2.77;1.80;;;;;;;18.70;47.52;98396.53;7305527;39;21460;31
2023/04/22 14:19:49;;;;;;;3.63;1.60;;;;;;;18.84;47.10;98408.87;7396955;39;20257;31
2023/04/22 14:25:23;;;;;;;5.13;1.83;;;;;;;18.97;47.03;98405.91;7355380;39;20263;31
2023/04/22 14:35:47;;;;;;;4.67;1.70;;;;;;;19.33;46.24;98411.06;7368557;39;20267;31
2023/04/22 14:46:24;;;;;;;3.47;1.67;;;;;;;19.41;46.27;98414.47;7460940;39;21035;31
2023/04/22 14:56:44;;;;;;;5.50;1.80;;;;;;;19.67;47.00;98413.94;7495376;39;20250;31
2023/04/22 15:02:16;;;;;;;2.57;1.60;;;;;;;19.72;46.22;98409.41;7396369;39;21158;31
2023/04/22 15:07:36;;;;;;;2.95;2.22;;;;;;;19.75;46.58;98413.53;7395871;39;20273;31
2023/04/22 15:18:16;;;;;;;3.40;1.70;;;;;;;19.61;47.54;98412.19;7416556;39;20284;31
2023/04/22 15:28:39;;;;;;;7.50;1.87;;;;;;;19.44;46.02;98406.63;7355454;39;20980;31
2023/04/22 15:34:13;;;;;;;3.63;2.03;;;;;;;19.33;45.22;98413.78;7390766;39;20380;31
2023/04/22 15:39:31;;;;;;;2.47;1.90;;;;;;;19.24;46.74;98411.66;7361129;39;20287;31
2023/04/22 15:44:46;;;;;;;4.20;3.10;;;;;;;19.14;47.04;98408.72;7377133;39;21920;31
2023/04/22 15:50:23;;;;;;;5.00;3.23;;;;;;;19.10;45.85;98407.53;7409694;39;21241;31
2023/04/22 16:01:02;;;;;;;3.60;2.20;;;;;;;19.05;46.96;98404.69;7364103;39;20645;31
2023/04/22 16:06:39;;;;;;;4.85;1.90;;;;;;;19.09;47.70;98403.97;7399814;39;20260;31
2023/04/22 16:12:10;;;;;;;3.03;1.80;;;;;;;19.12;47.10;98419.91;7335842;39;20263;31
2023/04/22 16:17:43;;;;;;;3.33;1.87;;;;;;;19.02;47.44;98413.38;7373685;39;20326;31
2023/04/22 16:23:18;;;;;;;2.40;1.80;;;;;;;18.88;46.99;98421.81;7343311;39;20271;31
2023/04/22 16:28:36;;;;;;;3.20;1.80;;;;;;;18.86;46.91;98421.25;7332811;39;20264;31
2023/04/22 16:34:08;;;;;;;2.90;1.90;;;;;;;18.80;46.38;98415.87;7331728;39;21976;31
2023/04/22 16:39:39;;;;;;;2.67;1.57;;;;;;;18.75;45.97;98423.97;7374787;39;20385;31
2023/04/22 16:44:57;;;;;;;3.05;1.80;;;;;;;18.75;46.25;98416.59;7358736;39;20322;31
2023/04/22 16:50:16;;;;;;;3.53;1.83;;;;;;;18.71;46.85;98426.34;7388169;39;20495;31
2023/04/22 16:55:47;;;;;;;5.00;1.93;;;;;;;18.57;47.74;98421.34;7390888;39;20239;31
2023/04/22 17:01:19;;;;;;;4.07;1.98;;;;;;;18.52;48.32;98432.94;7339350;39;20255;31
2023/04/22 17:06:37;;;;;;;2.87;1.87;;;;;;;18.43;49.09;98428.91;7354189;39;20248;31
2023/04/22 17:12:08;;;;;;;4.50;2.60;;;;;;;18.37;49.92;98451.69;7418545;39;20274;31
2023/04/22 17:17:26;;;;;;;4.20;2.03;;;;;;;18.30;51.22;98440.88;7354280;39;20239;31
2023/04/22 17:22:58;;;;;;;4.87;2.10;;;;;;;18.19;51.08;98446.31;7360134;39;20251;31
2023/04/22 17:28:31;;;;;;;4.05;1.85;;;;;;;18.11;51.68;98441.19;7322546;39;21202;31
2023/04/22 17:33:46;;;;;;;3.23;1.80;;;;;;;18.07;52.40;98448.19;7299625;39;20331;31
2023/04/22 17:44:26;;;;;;;4.07;1.90;;;;;;;17.87;52.36;98459.38;7395241;39;20296;31
2023/04/22 17:49:44;;;;;;;2.37;1.80;;;;;;;17.79;52.93;98457.81;7437618;39;20243;31
2023/04/22 17:55:04;;;;;;;3.73;1.90;;;;;;;17.71;52.66;98452.69;7428891;39;20265;31
2023/04/22 18:00:38;;;;;;;3.07;1.90;;;;;;;17.63;53.19;98455.72;7417045;39;20257;31
2023/04/22 18:06:12;;;;;;;2.80;1.95;;;;;;;17.52;53.70;98470.06;7379152;39;20358;31
2023/04/22 18:11:42;;;;;;;3.57;1.80;;;;;;;17.43;53.44;98471.44;7354725;39;20240;31
2023/04/22 18:17:18;;;;;;;4.30;2.10;;;;;;;17.30;53.79;98475.16;7386260;39;20342;31
2023/04/22 18:22:47;;;;;;;3.50;2.20;;;;;;;17.20;54.54;98477.56;7375738;39;20371;31
2023/04/22 18:28:19;;;;;;;3.55;2.00;;;;;;;17.19;55.01;98472.38;7326581;39;20278;31
2023/04/22 18:33:52;;;;;;;3.60;2.00;;;;;;;17.15;55.95;98482.06;7332797;39;20263;31
2023/04/22 18:39:24;;;;;;;3.37;2.07;;;;;;;17.07;56.28;98483.16;7342967;39;20354;31
2023/04/22 18:44:56;;;;;;;4.27;2.20;;;;;;;16.93;57.00;98500.72;7373988;39;21948;31
2023/04/22 18:50:29;;;;;;;5.70;2.25;;;;;;;16.83;57.61;98508.56;7430988;39;20252;31
2023/04/22 18:55:46;;;;;;;24.60;15.95;;;;;;;16.81;57.75;98507.94;7342601;39;20345;31
2023/04/22 19:01:04;;;;;;;10.62;6.08;;;;;;;16.70;58.61;98516.84;7376570;39;20341;31
2023/04/22 19:06:36;;;;;;;5.63;3.00;;;;;;;16.61;59.47;98525.28;7355334;39;21921;31
2023/04/22 19:12:13;;;;;;;4.17;2.40;;;;;;;16.41;59.88;98534.62;7298927;39;20259;31
2023/04/22 19:17:29;;;;;;;12.87;8.93;;;;;;;16.27;60.51;98522.16;7356194;39;20280;31
2023/04/22 19:23:03;;;;;;;6.47;3.80;;;;;;;16.18;60.79;98530.59;7349251;39;21893;31
2023/04/22 19:28:20;;;;;;;8.97;4.67;;;;;;;16.10;62.21;98530.81;7362746;39;20337;31
2023/04/22 19:33:37;;;;;;;3.70;2.57;;;;;;;16.00;62.91;98545.94;7359930;39;20413;31
2023/04/22 19:39:10;;;;;;;5.37;2.43;;;;;;;15.89;63.35;98554.78;7362785;39;20277;31
2023/04/22 19:44:45;;;;;;;3.20;2.25;;;;;;;15.80;64.87;98543.31;7425607;39;20271;31
2023/04/22 19:50:00;;;;;;;2.50;2.30;;;;;;;15.71;65.54;98550.88;7364666;39;20332;31
2023/04/22 19:55:34;;;;;;;2.80;2.50;;;;;;;15.63;65.50;98539.41;7377719;39;20245;31
2023/04/22 20:00:51;;;;;;;2.20;2.00;;;;;;;15.58;67.16;98547.38;7362202;39;20244;31
2023/04/22 20:06:27;;;;;;;3.23;2.40;;;;;;;15.52;67.93;98548.25;7366062;39;20392;31
2023/04/22 20:12:03;;;;;;;3.30;2.20;;;;;;;15.44;67.88;98538.44;7427195;39;21089;31
2023/04/22 20:17:20;;;;;;;2.80;2.10;;;;;;;15.43;68.04;98533.19;7440091;39;20299;31
2023/04/22 20:22:52;;;;;;;4.70;2.07;;;;;;;15.34;68.28;98524.47;7374603;39;20260;31
2023/04/22 20:28:26;;;;;;;4.10;2.30;;;;;;;15.25;69.04;98529.28;7361549;39;20348;31
2023/04/22 20:33:58;;;;;;;3.37;2.03;;;;;;;15.25;69.19;98532.00;7382444;39;20315;31
2023/04/22 20:39:30;;;;;;;3.00;2.30;;;;;;;15.21;70.17;98519.91;7400272;39;20255;31
2023/04/22 20:45:01;;;;;;;3.83;2.13;;;;;;;15.14;70.27;98524.50;7407676;39;20258;31
2023/04/22 20:50:19;;;;;;;4.33;2.20;;;;;;;15.12;70.29;98518.47;7439463;39;20345;31
2023/04/22 20:55:36;;;;;;;4.90;2.43;;;;;;;15.12;70.12;98523.88;7419921;39;20259;31
2023/04/22 21:01:09;;;;;;;3.15;2.60;;;;;;;15.13;69.93;98514.72;7412618;39;20297;31
2023/04/22 21:06:44;;;;;;;5.10;4.05;;;;;;;15.07;70.11;98515.53;7253466;39;20328;31
2023/04/22 21:12:02;;;;;;;4.43;3.15;;;;;;;15.11;70.23;98505.09;7462316;39;20243;31
2023/04/22 21:17:35;;;;;;;3.00;2.70;;;;;;;15.04;71.17;98505.13;7465859;38;20258;31
2023/04/22 21:23:07;;;;;;;6.30;2.90;;;;;;;15.03;71.26;98514.31;7396390;39;20239;31
2023/04/22 21:28:43;;;;;;;4.77;2.70;;;;;;;14.98;71.57;98516.81;7420481;39;21432;31
2023/04/22 21:34:12;;;;;;;2.87;2.07;;;;;;;15.00;71.49;98520.16;7397656;39;20252;31
2023/04/22 21:44:48;;;;;;;2.45;2.10;;;;;;;14.92;72.64;98538.53;7440460;39;20263;31
2023/04/22 21:55:23;;;;;;;2.40;2.20;;;;;;;14.88;73.75;98532.69;7423961;39;21259;31
2023/04/22 22:05:44;;;;;;;3.30;2.30;;;;;;;14.78;74.75;98527.69;7411384;39;21122;31
2023/04/22 22:11:15;;;;;;;3.20;2.40;;;;;;;14.78;74.78;98530.41;7440533;39;20274;31
2023/04/22 22:16:48;;;;;;;4.20;2.10;;;;;;;14.75;75.54;98533.53;7419742;39;20349;31
2023/04/22 22:22:19;;;;;;;3.63;2.50;;;;;;;14.75;74.39;98538.94;7457427;39;20274;31
2023/04/22 22:28:08;;;;;;;3.80;2.15;;;;;;;14.66;75.64;98539.38;7394028;39;20417;31
2023/04/22 22:38:44;;;;;;;6.47;3.70;;;;;;;14.60;76.70;98532.09;7402123;39;20417;31
2023/04/22 22:44:20;;;;;;;3.10;2.70;;;;;;;14.48;77.39;98547.31;7427317;39;20242;31
2023/04/22 22:49:53;;;;;;;2.97;2.40;;;;;;;14.44;77.53;98541.44;7423511;39;20345;31
2023/04/22 22:55:25;;;;;;;3.90;2.45;;;;;;;14.48;77.00;98544.59;7416041;39;20263;31
2023/04/22 23:06:02;;;;;;;3.80;2.50;;;;;;;14.40;78.48;98551.03;7415167;39;21264;31
2023/04/22 23:11:37;;;;;;;4.50;2.70;;;;;;;14.39;77.79;98550.19;7436642;39;21016;31
2023/04/22 23:17:04;;;;;;;2.93;2.30;;;;;;;14.42;78.13;98554.38;7448068;39;20259;31
2023/04/22 23:22:38;;;;;;;2.53;2.33;;;;;;;14.34;78.02;98551.84;7486610;39;21241;31
2023/04/22 23:28:09;;;;;;;3.30;2.40;;;;;;;14.33;77.90;98551.00;7438923;39;21179;31
2023/04/22 23:33:42;;;;;;;4.67;2.57;;;;;;;14.31;78.25;98542.22;7440668;39;20238;31
2023/04/22 23:39:14;;;;;;;4.36;2.52;;;;;;;14.24;78.29;98538.69;7400949;39;21127;31
2023/04/22 23:44:43;;;;;;;4.43;3.00;;;;;;;14.24;78.53;98544.13;7377292;39;20247;31
2023/04/22 23:50:02;;;;;;;2.90;2.60;;;;;;;14.26;78.20;98546.63;7357889;39;20243;31
2023/04/22 23:55:34;;;;;;;3.35;2.55;;;;;;;14.26;78.78;98538.50;7334655;39;20256;31
